createdAt,value
2023-01-31T00:01:04.771Z,1.00
2023-01-31T00:06:15.380Z,0.10
2023-01-31T00:11:18.417Z,0.10
2023-01-31T00:16:20.793Z,1.08
2023-01-31T00:21:23.769Z,0.57
2023-01-31T00:26:26.694Z,0.80
2023-01-31T00:31:29.287Z,3.40
2023-01-31T00:36:32.181Z,0.55
2023-01-31T00:41:34.583Z,1.45
2023-01-31T00:46:36.762Z,0.13
2023-01-31T00:51:38.977Z,2.15
2023-01-31T00:56:40.496Z,0.95
2023-01-31T01:01:42.151Z,0.35
2023-01-31T01:06:43.687Z,1.55
2023-01-31T01:11:45.111Z,1.17
2023-01-31T01:16:46.674Z,0.45
2023-01-31T01:21:48.184Z,2.47
2023-01-31T01:26:49.792Z,0.15
2023-01-31T01:31:51.402Z,0.10
2023-01-31T01:36:53.157Z,0.60
2023-01-31T01:41:55.202Z,0.08
2023-01-31T01:46:56.827Z,0.93
2023-01-31T01:52:00.344Z,0.03
2023-01-31T01:57:03.359Z,0.20
2023-01-31T02:02:05.254Z,0.30
2023-01-31T02:07:07.798Z,0.40
2023-01-31T02:12:10.249Z,0.47
2023-01-31T02:17:12.618Z,0.20
2023-01-31T02:22:14.087Z,0.20
2023-01-31T02:27:15.499Z,3.20
2023-01-31T02:32:23.106Z,0.57
2023-01-31T02:37:29.580Z,0.52
2023-01-31T02:42:48.045Z,0.10
2023-01-31T02:48:08.383Z,2.72
2023-01-31T02:53:17.366Z,0.52
2023-01-31T02:58:19.967Z,0.25
2023-01-31T03:03:47.912Z,0.80
2023-01-31T03:08:55.566Z,0.35
2023-01-31T03:14:05.322Z,1.20
2023-01-31T03:19:15.702Z,0.10
2023-01-31T03:24:18.216Z,0.28
2023-01-31T03:29:20.053Z,0.15
2023-01-31T03:34:21.676Z,1.35
2023-01-31T03:39:23.098Z,0.00
2023-01-31T03:44:27.767Z,0.10
2023-01-31T03:49:30.181Z,1.38
2023-01-31T03:54:33.954Z,0.22
2023-01-31T03:59:37.352Z,0.40
2023-01-31T04:04:45.419Z,4.03
2023-01-31T04:09:46.950Z,1.30
2023-01-31T04:14:48.404Z,0.30
2023-01-31T04:19:49.887Z,1.35
2023-01-31T04:24:51.428Z,0.25
2023-01-31T04:29:52.919Z,0.00
2023-01-31T04:34:54.380Z,0.93
2023-01-31T04:39:56.069Z,0.43
2023-01-31T04:44:57.649Z,0.95
2023-01-31T04:49:59.168Z,0.38
2023-01-31T04:55:00.746Z,0.55
2023-01-31T05:00:02.192Z,1.42
2023-01-31T05:05:04.267Z,6.07
2023-01-31T05:10:06.403Z,3.25
2023-01-31T05:15:08.210Z,1.55
2023-01-31T05:20:10.127Z,0.98
2023-01-31T05:25:11.626Z,0.20
2023-01-31T05:30:13.285Z,1.10
2023-01-31T05:35:14.846Z,0.38
2023-01-31T05:40:17.284Z,0.40
2023-01-31T05:45:19.504Z,0.70
2023-01-31T05:50:21.766Z,0.10
2023-01-31T05:55:23.312Z,2.42
2023-01-31T06:00:24.814Z,0.20
2023-01-31T06:05:26.663Z,1.70
2023-01-31T06:10:28.340Z,0.63
2023-01-31T06:15:30.828Z,0.10
2023-01-31T06:20:32.287Z,0.17
2023-01-31T06:25:33.743Z,0.08
2023-01-31T06:30:35.773Z,1.17
2023-01-31T06:35:37.523Z,0.35
2023-01-31T06:40:39.054Z,2.88
2023-01-31T06:45:42.506Z,2.08
2023-01-31T06:50:44.657Z,0.40
2023-01-31T06:55:46.117Z,0.93
2023-01-31T07:00:48.087Z,3.88
2023-01-31T07:05:49.694Z,0.40
2023-01-31T07:10:51.177Z,2.10
2023-01-31T07:15:53.031Z,1.55
2023-01-31T07:20:54.613Z,0.63
2023-01-31T07:25:56.220Z,0.85
2023-01-31T07:31:03.922Z,0.68
2023-01-31T07:36:06.220Z,1.35
2023-01-31T07:41:08.757Z,0.30
2023-01-31T07:46:11.363Z,0.13
2023-01-31T07:51:13.227Z,0.10
2023-01-31T07:56:15.867Z,0.32
2023-01-31T08:01:43.311Z,0.10
2023-01-31T08:06:45.637Z,0.73
2023-01-31T08:11:47.305Z,0.63
2023-01-31T08:16:48.885Z,1.40
2023-01-31T08:21:50.415Z,0.20
2023-01-31T08:26:51.921Z,0.82
2023-01-31T08:31:53.541Z,2.92
2023-01-31T08:36:55.248Z,1.77
2023-01-31T08:41:56.776Z,0.20
2023-01-31T08:47:01.911Z,0.50
2023-01-31T08:52:03.599Z,1.08
2023-01-31T08:57:05.086Z,1.55
2023-01-31T09:02:06.669Z,1.80
2023-01-31T09:07:08.266Z,0.05
2023-01-31T09:12:09.718Z,2.65
2023-01-31T09:17:11.290Z,0.88
2023-01-31T09:22:12.852Z,0.00
2023-01-31T09:27:14.669Z,2.30
2023-01-31T09:32:16.272Z,1.52
2023-01-31T09:37:17.783Z,0.17
2023-01-31T09:42:25.167Z,0.10
2023-01-31T09:47:29.951Z,0.10
2023-01-31T09:52:32.570Z,0.65
2023-01-31T09:57:47.711Z,1.02
2023-01-31T10:02:52.035Z,0.93
2023-01-31T10:08:02.506Z,0.70
2023-01-31T10:13:09.470Z,4.13
2023-01-31T10:18:15.075Z,0.15
2023-01-31T10:23:29.378Z,0.15
2023-01-31T10:28:34.970Z,1.90
2023-01-31T10:33:52.383Z,0.63
2023-01-31T10:39:02.754Z,1.70
2023-01-31T10:44:06.810Z,0.32
2023-01-31T10:49:09.116Z,0.55
2023-01-31T10:54:13.619Z,0.30
2023-01-31T10:59:15.149Z,0.75
2023-01-31T11:04:24.754Z,0.20
2023-01-31T11:09:28.093Z,0.75
2023-01-31T11:14:32.865Z,0.65
2023-01-31T11:19:39.709Z,0.43
2023-01-31T11:24:41.441Z,0.88
2023-01-31T11:29:50.642Z,0.20
2023-01-31T11:34:55.978Z,0.20
2023-01-31T11:39:58.888Z,0.30
2023-01-31T11:45:01.779Z,5.07
2023-01-31T11:50:03.635Z,0.25
2023-01-31T11:55:08.661Z,0.70
2023-01-31T12:00:23.954Z,0.30
2023-01-31T12:05:31.231Z,1.65
2023-01-31T12:10:41.568Z,3.65
2023-01-31T12:15:56.017Z,0.00
2023-01-31T12:21:06.310Z,0.30
2023-01-31T12:31:24.408Z,1.00
2023-01-31T12:36:25.920Z,2.08
2023-01-31T12:41:27.439Z,2.13
2023-01-31T12:46:50.648Z,0.47
2023-01-31T12:51:59.384Z,0.47
2023-01-31T12:57:18.159Z,1.00
2023-01-31T13:02:36.247Z,11.77
2023-01-31T13:08:00.966Z,0.32
2023-01-31T13:13:02.639Z,0.50
2023-01-31T13:18:05.273Z,2.78
2023-01-31T13:23:11.470Z,0.95
2023-01-31T13:28:15.617Z,4.32
2023-01-31T13:33:20.003Z,1.77
2023-01-31T13:38:22.261Z,5.25
2023-01-31T13:43:23.945Z,2.55
2023-01-31T13:48:28.277Z,1.67
2023-01-31T13:53:35.779Z,0.45
2023-01-31T13:58:37.408Z,1.05
2023-01-31T14:03:57.734Z,0.70
2023-01-31T14:08:59.524Z,2.30
2023-01-31T14:14:12.660Z,1.15
2023-01-31T14:19:19.945Z,2.63
2023-01-31T14:24:41.391Z,0.60
2023-01-31T14:29:43.942Z,0.35
2023-01-31T14:34:49.833Z,1.65
2023-01-31T14:40:09.871Z,1.85
2023-01-31T14:45:17.387Z,0.85
2023-01-31T14:50:19.326Z,1.15
2023-01-31T14:55:39.093Z,3.85
2023-01-31T15:00:47.033Z,0.65
2023-01-31T15:05:51.012Z,1.95
2023-01-31T15:11:07.163Z,0.32
2023-01-31T15:16:17.572Z,0.08
2023-01-31T15:21:21.741Z,0.68
2023-01-31T15:26:25.146Z,6.97
2023-01-31T15:31:32.357Z,5.35
2023-01-31T15:36:38.753Z,9.55
2023-01-31T15:41:41.456Z,12.43
2023-01-31T15:46:44.219Z,15.10
2023-01-31T15:51:45.682Z,16.60
2023-01-31T15:56:47.157Z,7.95
2023-01-31T16:01:49.811Z,12.23
2023-01-31T16:06:51.897Z,17.05
2023-01-31T16:11:54.188Z,19.88
2023-01-31T16:16:57.600Z,9.52
2023-01-31T16:21:59.230Z,9.35
2023-01-31T16:27:03.886Z,10.32
2023-01-31T16:32:14.967Z,6.32
2023-01-31T16:37:28.001Z,7.15
2023-01-31T16:42:31.146Z,7.63
2023-01-31T16:47:36.339Z,2.33
2023-01-31T16:52:37.819Z,19.58
2023-01-31T16:57:40.848Z,6.43
2023-01-31T17:02:42.590Z,15.35
2023-01-31T17:07:45.773Z,4.55
2023-01-31T17:12:47.543Z,8.95
2023-01-31T17:17:49.064Z,11.43
2023-01-31T17:23:00.914Z,4.97
2023-01-31T17:28:04.647Z,8.95
2023-01-31T17:33:06.403Z,6.50
2023-01-31T17:38:07.933Z,2.58
2023-01-31T17:43:17.688Z,5.15
2023-01-31T17:48:26.379Z,10.23
2023-01-31T17:53:32.139Z,1.20
2023-01-31T17:58:36.143Z,0.98
2023-01-31T18:03:37.617Z,2.33
2023-01-31T18:08:39.310Z,0.70
2023-01-31T18:13:41.223Z,0.63
2023-01-31T18:18:45.547Z,2.47
2023-01-31T18:23:50.704Z,3.20
2023-01-31T18:28:52.795Z,2.55
2023-01-31T18:33:54.306Z,3.30
2023-01-31T18:38:55.733Z,5.63
2023-01-31T18:43:57.543Z,5.00
2023-01-31T18:48:59.273Z,1.83
2023-01-31T18:54:00.783Z,5.63
2023-01-31T18:59:02.694Z,2.53
2023-01-31T19:04:04.307Z,2.08
2023-01-31T19:09:06.610Z,1.77
2023-01-31T19:14:10.820Z,9.02
2023-01-31T19:19:12.830Z,19.63
2023-01-31T19:24:15.433Z,5.88
2023-01-31T19:29:17.302Z,6.60
2023-01-31T19:34:18.767Z,7.90
2023-01-31T19:39:20.376Z,4.53
2023-01-31T19:44:22.040Z,0.95
2023-01-31T19:49:23.692Z,3.58
2023-01-31T19:54:27.144Z,6.45
2023-01-31T19:59:29.636Z,1.77
2023-01-31T20:04:32.721Z,1.52
2023-01-31T20:09:34.266Z,2.60
2023-01-31T20:14:35.912Z,2.22
2023-01-31T20:19:37.406Z,1.20
2023-01-31T20:24:38.854Z,1.88
2023-01-31T20:29:40.336Z,2.10
2023-01-31T20:34:41.862Z,2.85
2023-01-31T20:39:43.560Z,0.98
2023-01-31T20:44:45.259Z,2.22
2023-01-31T20:49:46.820Z,1.45
2023-01-31T20:54:48.288Z,1.52
2023-01-31T20:59:49.983Z,2.05
2023-01-31T21:04:51.481Z,2.05
2023-01-31T21:09:53.843Z,5.95
2023-01-31T21:14:55.434Z,8.27
2023-01-31T21:19:56.897Z,3.85
2023-01-31T21:24:58.340Z,6.55
2023-01-31T21:29:59.801Z,0.70
2023-01-31T21:35:03.327Z,3.63
2023-01-31T21:40:05.167Z,0.65
2023-01-31T21:45:07.855Z,4.03
2023-01-31T21:50:09.948Z,3.30
2023-01-31T21:55:11.604Z,5.00
2023-01-31T22:00:14.038Z,1.13
2023-01-31T22:05:15.614Z,1.88
2023-01-31T22:10:17.334Z,4.20
2023-01-31T22:15:18.907Z,3.25
2023-01-31T22:20:20.957Z,5.75
2023-01-31T22:25:22.629Z,4.70
2023-01-31T22:30:24.140Z,10.57
2023-01-31T22:35:26.708Z,8.27
2023-01-31T22:40:28.216Z,6.10
2023-01-31T22:45:30.052Z,3.92
2023-01-31T22:50:31.499Z,4.18
2023-01-31T22:55:37.786Z,5.28
2023-01-31T23:00:40.151Z,5.50
2023-01-31T23:05:43.663Z,3.17
2023-01-31T23:10:45.639Z,3.25
2023-01-31T23:15:47.165Z,2.63
2023-01-31T23:20:48.633Z,2.80
2023-01-31T23:25:50.120Z,1.45
2023-01-31T23:30:51.693Z,1.25
2023-01-31T23:35:53.237Z,1.65
2023-01-31T23:40:54.827Z,5.88
2023-01-31T23:45:56.351Z,2.08
2023-01-31T23:51:02.303Z,2.35
2023-01-31T23:56:04.060Z,1.20
